createdAt,value
2019-05-03T00:02:57.201Z,6.74
2019-05-03T00:07:02.618Z,6.63
2019-05-03T00:11:06.026Z,6.54
2019-05-03T00:15:29.785Z,6.39
2019-05-03T00:19:33.269Z,6.28
2019-05-03T00:23:37.065Z,6.10
2019-05-03T00:27:42.639Z,5.98
2019-05-03T00:31:45.916Z,6.00
2019-05-03T00:35:51.967Z,5.92
2019-05-03T00:40:01.934Z,5.96
2019-05-03T00:44:05.577Z,5.95
2019-05-03T00:48:09.404Z,5.98
2019-05-03T00:52:12.996Z,6.04
2019-05-03T00:56:16.472Z,6.01
2019-05-03T01:00:21.749Z,6.02
2019-05-03T01:04:25.149Z,5.97
2019-05-03T01:08:28.900Z,5.98
2019-05-03T01:12:32.630Z,5.96
2019-05-03T01:16:36.120Z,5.91
2019-05-03T01:20:39.954Z,5.88
2019-05-03T01:24:43.476Z,5.88
2019-05-03T01:28:47.218Z,5.84
2019-05-03T01:32:52.390Z,5.77
2019-05-03T01:36:55.965Z,5.65
2019-05-03T01:41:01.766Z,5.51
2019-05-03T01:45:06.564Z,5.34
2019-05-03T01:49:12.274Z,5.33
2019-05-03T01:53:23.811Z,5.33
2019-05-03T01:57:27.638Z,5.22
2019-05-03T02:01:35.946Z,5.17
2019-05-03T02:05:44.011Z,5.17
2019-05-03T02:09:47.887Z,5.01
2019-05-03T02:13:52.221Z,4.98
2019-05-03T02:17:55.859Z,4.94
2019-05-03T02:21:59.662Z,4.80
2019-05-03T02:26:03.404Z,4.76
2019-05-03T02:30:07.254Z,4.71
2019-05-03T02:34:12.566Z,4.56
2019-05-03T02:38:16.234Z,4.56
2019-05-03T02:42:19.988Z,4.46
2019-05-03T02:46:25.601Z,4.43
2019-05-03T02:50:29.265Z,4.35
2019-05-03T02:54:35.114Z,4.38
2019-05-03T02:58:38.633Z,4.43
2019-05-03T03:02:42.249Z,4.36
2019-05-03T03:06:47.721Z,4.26
2019-05-03T03:10:55.582Z,4.33
2019-05-03T03:15:01.564Z,4.30
2019-05-03T03:19:06.589Z,4.22
2019-05-03T03:23:17.809Z,4.23
2019-05-03T03:27:21.971Z,4.17
2019-05-03T03:31:31.620Z,4.29
2019-05-03T03:35:38.567Z,4.25
2019-05-03T03:39:45.552Z,4.27
2019-05-03T03:43:51.262Z,4.37
2019-05-03T03:47:56.264Z,4.31
2019-05-03T03:52:01.265Z,4.28
2019-05-03T03:56:05.725Z,4.27
2019-05-03T04:00:10.254Z,4.24
2019-05-03T04:04:16.046Z,4.34
2019-05-03T04:08:19.380Z,4.37
2019-05-03T04:12:26.150Z,4.44
2019-05-03T04:16:29.773Z,4.42
2019-05-03T04:20:36.047Z,4.35
2019-05-03T04:24:39.753Z,4.35
2019-05-03T04:28:45.365Z,4.33
2019-05-03T04:32:50.291Z,4.33
2019-05-03T04:36:55.468Z,4.51
2019-05-03T04:40:59.139Z,4.61
2019-05-03T04:45:05.650Z,4.55
2019-05-03T04:49:08.342Z,4.63
2019-05-03T04:53:15.946Z,4.82
2019-05-03T04:57:34.310Z,4.82
2019-05-03T05:01:22.856Z,4.96
2019-05-03T05:05:26.580Z,4.87
2019-05-03T05:09:30.105Z,4.87
2019-05-03T05:13:35.619Z,5.25
2019-05-03T05:17:40.594Z,5.45
2019-05-03T05:21:46.067Z,5.71
2019-05-03T05:25:51.214Z,5.76
2019-05-03T05:29:55.421Z,6.12
2019-05-03T05:33:59.244Z,6.17
2019-05-03T05:38:04.658Z,6.45
2019-05-03T05:42:08.323Z,6.56
2019-05-03T05:46:11.809Z,6.81
2019-05-03T05:50:17.270Z,7.05
2019-05-03T05:54:21.096Z,6.99
2019-05-03T05:58:41.640Z,7.32
2019-05-03T06:02:45.431Z,7.52
2019-05-03T06:06:50.553Z,7.52
2019-05-03T06:10:58.120Z,7.78
2019-05-03T06:15:04.752Z,8.22
2019-05-03T06:19:22.282Z,9.20
2019-05-03T06:23:27.468Z,9.41
2019-05-03T06:27:34.606Z,9.52
2019-05-03T06:31:56.354Z,9.30
2019-05-03T06:36:00.214Z,10.15
2019-05-03T06:40:06.177Z,10.34
2019-05-03T06:44:09.711Z,10.04
2019-05-03T06:48:15.785Z,9.66
2019-05-03T06:52:19.865Z,9.68
2019-05-03T06:56:28.980Z,10.70
2019-05-03T07:00:49.582Z,11.03
2019-05-03T07:04:56.200Z,12.45
2019-05-03T07:09:07.417Z,11.96
2019-05-03T07:13:10.909Z,12.78
2019-05-03T07:17:14.612Z,12.08
2019-05-03T07:21:18.092Z,11.00
2019-05-03T07:25:21.601Z,11.03
2019-05-03T07:29:25.651Z,10.98
2019-05-03T07:33:31.163Z,14.55
2019-05-03T07:37:34.969Z,13.10
2019-05-03T07:41:38.525Z,10.85
2019-05-03T07:45:42.117Z,11.83
2019-05-03T07:49:45.920Z,11.50
2019-05-03T07:53:49.735Z,14.90
2019-05-03T07:57:57.544Z,14.27
2019-05-03T08:02:01.056Z,16.89
2019-05-03T08:06:05.460Z,19.32
2019-05-03T08:10:09.625Z,18.66
2019-05-03T08:14:16.091Z,16.08
2019-05-03T08:18:18.791Z,15.26
2019-05-03T08:22:22.612Z,16.74
2019-05-03T08:26:26.203Z,13.58
2019-05-03T08:30:35.406Z,14.23
2019-05-03T08:34:46.438Z,17.35
2019-05-03T08:38:50.270Z,19.21
2019-05-03T08:42:54.984Z,20.62
2019-05-03T08:46:59.529Z,19.26
2019-05-03T08:51:04.532Z,14.75
2019-05-03T08:55:08.259Z,13.40
2019-05-03T08:59:26.187Z,13.05
2019-05-03T09:03:18.751Z,13.57
2019-05-03T09:07:22.535Z,14.09
2019-05-03T09:11:33.594Z,13.39
2019-05-03T09:15:31.272Z,14.41
2019-05-03T09:19:35.041Z,14.36
2019-05-03T09:23:38.839Z,13.85
2019-05-03T09:27:44.605Z,14.77
2019-05-03T09:31:48.082Z,14.77
2019-05-03T09:35:51.559Z,16.40
2019-05-03T09:39:55.328Z,18.15
2019-05-03T09:43:59.260Z,18.99
2019-05-03T09:48:05.472Z,18.69
2019-05-03T09:52:08.797Z,20.53
2019-05-03T09:56:12.377Z,20.64
2019-05-03T10:00:17.555Z,19.48
2019-05-03T10:04:21.051Z,18.27
2019-05-03T10:08:25.454Z,18.74
2019-05-03T10:12:29.131Z,17.78
2019-05-03T10:16:35.109Z,17.49
2019-05-03T10:20:38.662Z,15.33
2019-05-03T10:24:42.458Z,12.46
2019-05-03T10:28:45.941Z,14.83
2019-05-03T10:32:51.754Z,15.14
2019-05-03T10:36:55.341Z,13.38
2019-05-03T10:40:58.946Z,10.49
2019-05-03T10:45:04.506Z,9.07
2019-05-03T10:49:07.634Z,8.58
2019-05-03T10:53:15.769Z,8.93
2019-05-03T10:57:21.208Z,9.42
2019-05-03T11:01:26.368Z,12.01
2019-05-03T11:05:29.910Z,13.10
2019-05-03T11:09:47.937Z,12.92
2019-05-03T11:13:38.607Z,11.12
2019-05-03T11:17:42.451Z,10.34
2019-05-03T11:21:45.946Z,9.41
2019-05-03T11:25:49.498Z,8.71
2019-05-03T11:29:55.448Z,8.91
2019-05-03T11:34:00.298Z,9.12
2019-05-03T11:38:11.582Z,8.85
2019-05-03T11:42:18.411Z,8.69
2019-05-03T11:46:21.060Z,8.63
2019-05-03T11:50:25.341Z,8.17
2019-05-03T11:54:29.094Z,8.08
2019-05-03T11:58:34.253Z,8.55
2019-05-03T12:02:39.508Z,8.93
2019-05-03T12:06:42.990Z,9.38
2019-05-03T12:10:55.439Z,10.11
2019-05-03T12:14:52.021Z,11.89
2019-05-03T12:18:56.320Z,12.77
2019-05-03T12:23:01.184Z,12.97
2019-05-03T12:27:05.572Z,12.92
2019-05-03T12:31:24.345Z,12.90
2019-05-03T12:35:15.397Z,12.45
2019-05-03T12:39:26.814Z,12.65
2019-05-03T12:43:25.635Z,13.41
2019-05-03T12:47:29.691Z,14.20
2019-05-03T12:51:34.508Z,13.90
2019-05-03T12:55:38.173Z,13.20
2019-05-03T12:59:49.159Z,13.45
2019-05-03T13:03:57.384Z,11.81
2019-05-03T13:08:20.586Z,10.94
2019-05-03T13:12:25.730Z,11.07
2019-05-03T13:16:29.517Z,11.52
2019-05-03T13:20:35.858Z,12.34
2019-05-03T13:24:38.557Z,12.55
2019-05-03T13:28:42.508Z,12.30
2019-05-03T13:32:45.987Z,12.56
2019-05-03T13:36:49.877Z,12.50
2019-05-03T13:40:54.347Z,12.33
2019-05-03T13:44:58.139Z,12.32
2019-05-03T13:49:02.081Z,12.50
2019-05-03T13:53:06.480Z,12.07
2019-05-03T13:57:10.266Z,11.72
2019-05-03T14:01:14.747Z,12.38
2019-05-03T14:05:18.337Z,12.75
2019-05-03T14:09:22.138Z,12.77
2019-05-03T14:13:26.291Z,12.53
2019-05-03T14:17:29.768Z,12.47
2019-05-03T14:21:37.990Z,12.14
2019-05-03T14:25:41.474Z,12.28
2019-05-03T14:29:45.417Z,12.23
2019-05-03T14:33:49.347Z,11.98
2019-05-03T14:37:54.932Z,11.93
2019-05-03T14:41:58.836Z,11.29
2019-05-03T14:46:02.426Z,10.22
2019-05-03T14:50:06.778Z,10.12
2019-05-03T14:54:10.633Z,10.29
2019-05-03T14:58:27.521Z,10.41
2019-05-03T15:02:43.664Z,10.35
2019-05-03T15:06:40.765Z,10.48
2019-05-03T15:10:45.605Z,10.20
2019-05-03T15:14:49.222Z,10.10
2019-05-03T15:18:54.779Z,9.85
2019-05-03T15:22:58.208Z,10.05
2019-05-03T15:27:02.033Z,9.97
2019-05-03T15:31:05.951Z,9.94
2019-05-03T15:35:09.878Z,10.51
2019-05-03T15:39:15.248Z,10.78
2019-05-03T15:43:29.486Z,10.97
2019-05-03T15:47:38.017Z,11.38
2019-05-03T15:51:41.836Z,11.25
2019-05-03T15:55:45.327Z,11.33
2019-05-03T15:59:48.806Z,11.07
2019-05-03T16:03:52.297Z,10.31
2019-05-03T16:07:56.093Z,10.04
2019-05-03T16:11:59.580Z,10.38
2019-05-03T16:16:04.324Z,10.54
2019-05-03T16:20:08.225Z,10.45
2019-05-03T16:24:11.708Z,10.11
2019-05-03T16:28:24.735Z,10.02
2019-05-03T16:32:28.083Z,9.90
2019-05-03T16:36:31.562Z,9.75
2019-05-03T16:40:35.182Z,9.69
2019-05-03T16:44:38.950Z,9.38
2019-05-03T16:48:44.629Z,8.72
2019-05-03T16:52:47.906Z,8.84
2019-05-03T16:56:51.373Z,9.00
2019-05-03T17:00:55.321Z,9.00
2019-05-03T17:05:05.163Z,9.11
2019-05-03T17:09:10.247Z,9.48
2019-05-03T17:13:14.769Z,9.43
2019-05-03T17:17:18.216Z,9.27
2019-05-03T17:21:21.685Z,9.15
2019-05-03T17:25:25.246Z,8.94
2019-05-03T17:29:29.066Z,8.91
2019-05-03T17:33:34.681Z,8.82
2019-05-03T17:37:38.097Z,8.72
2019-05-03T17:41:46.042Z,8.70
2019-05-03T17:45:55.024Z,8.75
2019-05-03T17:49:59.009Z,8.70
2019-05-03T17:54:16.539Z,8.66
2019-05-03T17:58:21.674Z,8.65
2019-05-03T18:02:35.839Z,8.71
2019-05-03T18:06:46.948Z,8.71
2019-05-03T18:10:52.502Z,8.83
2019-05-03T18:15:02.950Z,8.84
2019-05-03T18:19:12.033Z,8.65
2019-05-03T18:23:19.117Z,8.46
2019-05-03T18:27:31.915Z,8.18
2019-05-03T18:31:36.009Z,8.02
2019-05-03T18:35:48.209Z,7.83
2019-05-03T18:44:25.839Z,7.33
2019-05-03T18:48:35.855Z,7.17
2019-05-03T18:52:48.886Z,6.99
2019-05-03T18:57:00.128Z,6.93
2019-05-03T19:05:35.039Z,6.96
2019-05-03T19:10:15.850Z,6.74
2019-05-03T19:14:33.573Z,6.73
2019-05-03T19:18:38.658Z,6.53
2019-05-03T19:22:42.145Z,6.45
2019-05-03T19:26:46.003Z,6.38
2019-05-03T19:30:49.803Z,6.16
2019-05-03T19:34:54.899Z,5.98
2019-05-03T19:38:58.497Z,5.81
2019-05-03T19:43:03.314Z,5.74
2019-05-03T19:47:07.171Z,5.86
2019-05-03T19:51:10.650Z,5.69
2019-05-03T19:55:15.402Z,5.81
2019-05-03T19:59:34.765Z,5.94
2019-05-03T20:03:48.428Z,5.91
2019-05-03T20:07:59.560Z,5.92
2019-05-03T20:12:04.605Z,6.13
2019-05-03T20:16:08.192Z,6.21
2019-05-03T20:20:11.668Z,6.19
2019-05-03T20:24:15.507Z,6.21
2019-05-03T20:28:19.053Z,6.15
2019-05-03T20:32:22.534Z,6.20
2019-05-03T20:36:26.253Z,6.12
2019-05-03T20:40:29.755Z,6.12
2019-05-03T20:44:35.509Z,5.96
2019-05-03T20:48:40.262Z,5.79
2019-05-03T20:52:44.487Z,5.68
2019-05-03T20:56:48.600Z,5.81
2019-05-03T21:00:54.552Z,5.69
2019-05-03T21:04:58.164Z,5.78
2019-05-03T21:09:01.650Z,5.83
2019-05-03T21:13:08.503Z,5.95
2019-05-03T21:17:21.110Z,6.09
2019-05-03T21:21:29.457Z,6.24
2019-05-03T21:25:36.450Z,6.16
2019-05-03T21:29:55.145Z,6.15
2019-05-03T21:38:08.872Z,6.27
2019-05-03T21:42:12.342Z,6.28
2019-05-03T21:46:35.690Z,6.17
2019-05-03T21:50:39.184Z,6.01
2019-05-03T21:54:44.950Z,5.96
2019-05-03T21:58:48.678Z,5.88
2019-05-03T22:02:54.618Z,5.83
2019-05-03T22:07:05.252Z,5.76
2019-05-03T22:11:12.378Z,5.86
2019-05-03T22:15:20.154Z,5.87
2019-05-03T22:19:25.053Z,5.90
2019-05-03T22:23:30.311Z,5.97
2019-05-03T22:27:38.415Z,5.88
2019-05-03T22:31:41.897Z,5.74
2019-05-03T22:35:45.954Z,5.68
2019-05-03T22:39:49.430Z,5.78
2019-05-03T22:43:54.679Z,5.93
2019-05-03T22:47:58.455Z,5.95
2019-05-03T22:52:02.355Z,5.68
2019-05-03T22:56:05.824Z,5.49
2019-05-03T23:00:09.769Z,4.46
2019-05-03T23:04:14.629Z,3.75
2019-05-03T23:08:18.746Z,3.84
2019-05-03T23:12:22.251Z,4.04
2019-05-03T23:16:25.753Z,4.08
2019-05-03T23:20:49.362Z,4.05
2019-05-03T23:24:54.807Z,4.18
2019-05-03T23:28:58.501Z,4.39
2019-05-03T23:33:02.000Z,4.16
2019-05-03T23:37:05.657Z,4.16
2019-05-03T23:41:09.484Z,4.17
2019-05-03T23:45:14.903Z,4.11
2019-05-03T23:49:18.531Z,4.06
2019-05-03T23:53:22.018Z,4.07
2019-05-03T23:57:25.494Z,4.14
